Aérodrome :
LOGIN :

S'inscrire | Disclaimer

   EN    FR    IT 

 










Légende :    VFR   VFR Marginal   IFR   IFR Intensif   IFR Très Intensif
Visi : 
Plafond : 
>= 8 km
>= 3000ft
5 à 8 km
1000 à 3000 ft
1500m à 5 km
500 à 1000 ft
800 à 1500m
200 à 500 ft
< 800m
< 200 ft
Symboles :   Orages  Brouillard  Fortes neiges  Fortes précipitations  Vent > 20 kt
SIGMETs :   Divers  Orages  Givrage  Turbulence  Onde Orograph.  Cendres Volcan.






- Altitude de l'aérodrome : 359 ft
- Code IATA : BVA


LFOB - Beauvais

DERNIER METAR :
  • 131030Z AUTO 28020G32KT 9999 BKN031/// BKN047/// BKN064/// ///TCU 08/04 Q0983 TEMPO SHRA BKN030CB

METARs EXPIRÉS :
  • 131000Z AUTO 28021KT 9999 -RA SCT026/// BKN032/// BKN039/// ///CB 07/04 Q0982 TEMPO 28025G40KT SHRA
  • 130930Z AUTO 28019G30KT 9999 BKN029/// OVC035/// ///TCU 07/04 Q0981 TEMPO 28025G40KT SHRA BKN030CB
  • 130900Z AUTO 29020KT 9999 BKN024/// BKN029/// OVC036/// ///TCU 07/04 Q0981 TEMPO 28025G40KT SHRA BKN030CB
  • 130830Z AUTO 28024G40KT 9999 -RA BKN028/// BKN036/// BKN050/// ///TCU 07/04 Q0980 TEMPO SHRA BKN030CB
  • 130800Z AUTO 28017KT 9999 -RA BKN026/// BKN031/// OVC038/// ///TCU 07/04 Q0979 TEMPO 28025G40KT SHRA BKN030CB

TAF TAF LFOB
Valide du 13 à 06h jusqu'au 14 à 06h UTC


130500Z 1306/1406 28020G30KT 9999 BKN030
TEMPO 1306/1313 28025G40KT SHRA BKN030CB
BECMG 1316/1318 22012KT
TEMPO 1321/1324 4000 RA OVC013
FM140100 26025G40KT 9999 BKN030
TEMPO 1401/1406 26025G50KT 4000 SHRA
ATIS : +33 3 44 11 49 28



MET'MAP, la Météo Aéronautique d'un coup d'oeil ! - Copyright ORBIFLY Décembre 2007 - Disclaimer

ORBIFLY MET'MAP TEAM :

Programmation & Développement : Alexandra Zaïnal
Sur une idée originale de : Baudouin d'Aumeries
Assistance à la programmation : Marc-Olivier Méhu
Soutien technique & logistique : Manuel Goepfert

Contact : metmap@orbifly.com




SOURCES & CREDITS :

   NOAA